createdAt,value
2019-05-05T00:01:08.262Z,75.91
2019-05-05T00:03:47.156Z,76.13
2019-05-05T00:06:18.455Z,76.26
2019-05-05T00:08:49.503Z,76.74
2019-05-05T00:11:32.484Z,77.14
2019-05-05T00:14:10.385Z,77.54
2019-05-05T00:16:48.424Z,77.81
2019-05-05T00:19:30.692Z,77.67
2019-05-05T00:21:55.030Z,77.89
2019-05-05T00:24:25.552Z,78.11
2019-05-05T00:26:58.600Z,78.09
2019-05-05T00:29:29.222Z,77.70
2019-05-05T00:31:59.896Z,78.25
2019-05-05T00:34:30.617Z,78.39
2019-05-05T00:37:04.458Z,78.73
2019-05-05T00:39:34.646Z,78.97
2019-05-05T00:42:05.693Z,78.92
2019-05-05T00:44:36.446Z,79.51
2019-05-05T00:47:08.618Z,80.05
2019-05-05T00:49:46.473Z,80.27
2019-05-05T00:52:14.374Z,80.14
2019-05-05T00:54:45.213Z,79.75
2019-05-05T00:57:16.426Z,79.85
2019-05-05T00:59:47.113Z,79.89
2019-05-05T01:02:26.771Z,80.29
2019-05-05T01:04:59.074Z,80.11
2019-05-05T01:07:31.474Z,80.29
2019-05-05T01:10:02.443Z,80.84
2019-05-05T01:12:34.872Z,80.89
2019-05-05T01:15:06.326Z,80.78
2019-05-05T01:17:36.952Z,80.92
2019-05-05T01:20:07.695Z,80.94
2019-05-05T01:22:38.333Z,81.48
2019-05-05T01:25:09.043Z,80.92
2019-05-05T01:27:39.625Z,81.12
2019-05-05T01:30:16.345Z,80.84
2019-05-05T01:32:57.847Z,80.70
2019-05-05T01:35:29.561Z,80.69
2019-05-05T01:38:01.719Z,80.82
2019-05-05T01:40:35.356Z,80.51
2019-05-05T01:43:06.231Z,80.56
2019-05-05T01:45:37.166Z,80.56
2019-05-05T01:48:08.445Z,80.65
2019-05-05T01:50:40.669Z,80.58
2019-05-05T01:53:11.295Z,80.13
2019-05-05T01:55:45.173Z,79.92
2019-05-05T01:58:16.370Z,80.71
2019-05-05T02:00:46.989Z,80.78
2019-05-05T02:03:17.610Z,80.64
2019-05-05T02:05:48.938Z,80.65
2019-05-05T02:08:20.831Z,80.66
2019-05-05T02:10:51.417Z,81.04
2019-05-05T02:13:22.443Z,80.23
2019-05-05T02:15:55.419Z,80.00
2019-05-05T02:18:29.179Z,79.80
2019-05-05T02:21:05.124Z,79.86
2019-05-05T02:23:37.585Z,79.80
2019-05-05T02:26:08.912Z,79.87
2019-05-05T02:28:47.399Z,79.39
2019-05-05T02:31:25.298Z,79.18
2019-05-05T02:33:56.845Z,78.91
2019-05-05T02:36:28.615Z,78.79
2019-05-05T02:38:59.322Z,78.73
2019-05-05T02:41:30.370Z,78.48
2019-05-05T02:44:01.541Z,78.34
2019-05-05T02:46:41.175Z,78.64
2019-05-05T02:49:14.903Z,78.96
2019-05-05T02:51:47.190Z,78.85
2019-05-05T02:54:19.880Z,78.48
2019-05-05T02:56:54.200Z,78.41
2019-05-05T02:59:29.512Z,78.20
2019-05-05T03:02:04.333Z,77.88
2019-05-05T03:04:35.139Z,77.60
2019-05-05T03:07:09.100Z,77.04
2019-05-05T03:09:41.064Z,77.21
2019-05-05T03:12:14.764Z,77.07
2019-05-05T03:14:47.106Z,76.52
2019-05-05T03:17:19.874Z,76.63
2019-05-05T03:19:53.393Z,75.72
2019-05-05T03:22:25.136Z,75.43
2019-05-05T03:24:57.351Z,73.21
2019-05-05T03:27:30.763Z,69.76
2019-05-05T03:30:04.676Z,68.03
2019-05-05T03:32:35.957Z,67.42
2019-05-05T03:35:06.664Z,67.26
2019-05-05T03:37:37.658Z,63.37
2019-05-05T03:40:10.794Z,62.53
2019-05-05T03:42:44.297Z,63.76
2019-05-05T03:45:19.727Z,62.36
2019-05-05T03:47:51.030Z,60.93
2019-05-05T03:50:23.292Z,57.18
2019-05-05T03:52:55.944Z,58.35
2019-05-05T03:55:26.558Z,59.99
2019-05-05T03:57:57.303Z,58.94
2019-05-05T04:00:40.306Z,53.42
2019-05-05T04:03:11.057Z,55.04
2019-05-05T04:05:46.992Z,56.09
2019-05-05T04:08:17.737Z,54.34
2019-05-05T04:10:50.934Z,55.26
2019-05-05T04:13:24.155Z,52.78
2019-05-05T04:16:06.675Z,53.00
2019-05-05T04:18:54.213Z,50.52
2019-05-05T04:21:33.605Z,53.19
2019-05-05T04:23:58.282Z,50.42
2019-05-05T04:26:29.121Z,52.05
2019-05-05T04:29:02.267Z,51.43
2019-05-05T04:31:34.546Z,52.02
2019-05-05T04:34:05.311Z,52.50
2019-05-05T04:36:35.916Z,52.35
2019-05-05T04:39:07.874Z,52.71
2019-05-05T04:41:38.683Z,51.63
2019-05-05T04:44:12.014Z,50.41
2019-05-05T04:46:46.365Z,49.95
2019-05-05T04:49:23.388Z,51.10
2019-05-05T04:51:58.540Z,51.86
2019-05-05T04:54:30.795Z,50.03
2019-05-05T04:57:01.487Z,51.06
2019-05-05T04:59:34.048Z,52.28
2019-05-05T05:02:06.436Z,51.18
2019-05-05T05:04:44.944Z,49.76
2019-05-05T05:07:16.697Z,48.50
2019-05-05T05:09:47.373Z,49.69
2019-05-05T05:12:19.120Z,47.29
2019-05-05T05:14:51.297Z,46.50
2019-05-05T05:17:24.931Z,45.43
2019-05-05T05:19:55.836Z,46.55
2019-05-05T05:22:26.472Z,46.53
2019-05-05T05:24:57.062Z,45.15
2019-05-05T05:27:27.838Z,45.48
2019-05-05T05:30:04.528Z,42.38
2019-05-05T05:32:36.353Z,41.22
2019-05-05T05:35:09.222Z,41.22
2019-05-05T05:37:44.580Z,42.45
2019-05-05T05:40:18.382Z,41.57
2019-05-05T05:42:50.075Z,40.59
2019-05-05T05:45:36.055Z,41.58
2019-05-05T05:48:23.691Z,38.03
2019-05-05T05:50:56.092Z,38.34
2019-05-05T05:53:26.692Z,38.37
2019-05-05T05:55:59.112Z,37.50
2019-05-05T05:58:29.926Z,38.09
2019-05-05T06:01:04.989Z,39.48
2019-05-05T06:03:36.307Z,35.85
2019-05-05T06:06:06.952Z,36.15
2019-05-05T06:08:37.694Z,35.80
2019-05-05T06:11:08.339Z,37.39
2019-05-05T06:13:40.259Z,36.00
2019-05-05T06:16:11.521Z,35.89
2019-05-05T06:18:43.839Z,35.59
2019-05-05T06:21:14.448Z,36.49
2019-05-05T06:23:45.075Z,36.38
2019-05-05T06:26:15.672Z,35.70
2019-05-05T06:28:46.644Z,36.17
2019-05-05T06:31:17.376Z,35.55
2019-05-05T06:33:48.925Z,35.25
2019-05-05T06:36:20.020Z,36.08
2019-05-05T06:38:53.789Z,36.03
2019-05-05T06:41:30.209Z,37.52
2019-05-05T06:44:05.228Z,40.29
2019-05-05T06:46:44.984Z,40.04
2019-05-05T06:49:15.635Z,39.91
2019-05-05T06:51:46.265Z,39.54
2019-05-05T06:54:16.845Z,39.21
2019-05-05T06:56:48.495Z,39.16
2019-05-05T06:59:19.198Z,39.82
2019-05-05T07:01:49.932Z,40.11
2019-05-05T07:04:24.389Z,40.21
2019-05-05T07:06:57.333Z,40.67
2019-05-05T07:09:29.650Z,40.39
2019-05-05T07:12:00.257Z,39.93
2019-05-05T07:14:31.052Z,39.60
2019-05-05T07:17:04.897Z,39.75
2019-05-05T07:19:35.299Z,38.71
2019-05-05T07:22:06.037Z,38.79
2019-05-05T07:24:37.022Z,39.12
2019-05-05T07:27:07.936Z,39.84
2019-05-05T07:29:38.541Z,39.41
2019-05-05T07:32:10.466Z,39.56
2019-05-05T07:34:45.744Z,38.99
2019-05-05T07:37:17.663Z,38.83
2019-05-05T07:39:50.002Z,38.16
2019-05-05T07:42:20.712Z,38.94
2019-05-05T07:44:52.141Z,38.96
2019-05-05T07:47:23.825Z,38.89
2019-05-05T07:49:54.700Z,39.11
2019-05-05T07:52:25.324Z,38.76
2019-05-05T07:54:59.042Z,39.35
2019-05-05T07:57:31.002Z,39.35
2019-05-05T08:00:02.736Z,38.33
2019-05-05T08:02:36.072Z,38.88
2019-05-05T08:05:08.477Z,38.87
2019-05-05T08:07:44.688Z,37.25
2019-05-05T08:10:16.551Z,37.56
2019-05-05T08:12:48.699Z,37.52
2019-05-05T08:15:21.369Z,37.09
2019-05-05T08:18:09.017Z,36.73
2019-05-05T08:20:44.334Z,37.42
2019-05-05T08:23:30.310Z,36.05
2019-05-05T08:25:58.415Z,36.52
2019-05-05T08:28:35.119Z,36.37
2019-05-05T08:31:11.811Z,36.60
2019-05-05T08:33:44.201Z,36.42
2019-05-05T08:36:14.841Z,37.71
2019-05-05T08:38:45.677Z,36.74
2019-05-05T08:41:17.326Z,36.93
2019-05-05T08:43:47.966Z,37.40
2019-05-05T08:46:18.488Z,37.38
2019-05-05T08:48:49.136Z,36.75
2019-05-05T08:51:19.757Z,37.38
2019-05-05T08:53:50.483Z,36.04
2019-05-05T08:56:21.336Z,34.56
2019-05-05T08:58:54.353Z,33.30
2019-05-05T09:01:24.440Z,32.34
2019-05-05T09:03:55.058Z,30.25
2019-05-05T09:06:25.787Z,31.43
2019-05-05T09:08:56.327Z,31.34
2019-05-05T09:11:26.956Z,32.33
2019-05-05T09:13:57.604Z,31.59
2019-05-05T09:16:28.388Z,32.65
2019-05-05T09:19:06.643Z,32.92
2019-05-05T09:21:37.359Z,32.96
2019-05-05T09:24:28.174Z,33.28
2019-05-05T09:27:00.486Z,32.65
2019-05-05T09:29:43.770Z,33.36
2019-05-05T09:32:14.276Z,33.15
2019-05-05T09:34:44.896Z,33.15
2019-05-05T09:37:15.587Z,32.41
2019-05-05T09:39:46.232Z,32.38
2019-05-05T09:42:16.902Z,32.43
2019-05-05T09:44:47.649Z,31.91
2019-05-05T09:47:24.008Z,32.56
2019-05-05T09:49:55.024Z,32.93
2019-05-05T09:52:25.671Z,32.51
2019-05-05T09:54:57.239Z,32.28
2019-05-05T09:57:28.257Z,33.33
2019-05-05T10:00:00.496Z,32.56
2019-05-05T10:02:31.497Z,32.48
2019-05-05T10:05:03.990Z,32.83
2019-05-05T10:07:34.675Z,33.07
2019-05-05T10:10:06.419Z,33.32
2019-05-05T10:12:37.137Z,32.16
2019-05-05T10:15:08.780Z,32.48
2019-05-05T10:17:39.431Z,31.25
2019-05-05T10:20:10.111Z,30.49
2019-05-05T10:22:40.693Z,30.75
2019-05-05T10:25:29.536Z,31.43
2019-05-05T10:28:00.357Z,31.30
2019-05-05T10:30:31.358Z,32.55
2019-05-05T10:33:03.787Z,31.31
2019-05-05T10:35:36.189Z,31.31
2019-05-05T10:38:06.859Z,31.04
2019-05-05T10:40:38.369Z,33.26
2019-05-05T10:43:09.096Z,34.37
2019-05-05T10:45:39.931Z,34.37
2019-05-05T10:48:10.668Z,33.06
2019-05-05T10:50:41.574Z,32.36
2019-05-05T10:53:13.652Z,32.54
2019-05-05T10:55:45.223Z,32.54
2019-05-05T10:58:15.802Z,32.38
2019-05-05T11:00:51.088Z,31.74
2019-05-05T11:03:23.744Z,31.91
2019-05-05T11:05:54.954Z,32.64
2019-05-05T11:08:25.695Z,32.64
2019-05-05T11:10:57.872Z,32.08
2019-05-05T11:13:28.759Z,30.56
2019-05-05T11:15:59.375Z,30.56
2019-05-05T11:18:29.970Z,31.78
2019-05-05T11:21:00.861Z,31.05
2019-05-05T11:23:31.530Z,29.54
2019-05-05T11:26:03.906Z,29.54
2019-05-05T11:28:34.638Z,31.51
2019-05-05T11:31:05.467Z,32.39
2019-05-05T11:33:43.834Z,31.38
2019-05-05T11:36:19.037Z,31.03
2019-05-05T11:38:53.531Z,30.68
2019-05-05T11:41:24.253Z,32.10
2019-05-05T11:43:54.981Z,32.30
2019-05-05T11:46:25.636Z,32.49
2019-05-05T11:48:56.380Z,31.89
2019-05-05T11:51:27.005Z,32.91
2019-05-05T11:53:57.624Z,32.91
2019-05-05T11:56:28.302Z,33.43
2019-05-05T11:58:59.050Z,34.30
2019-05-05T12:01:30.901Z,35.09
2019-05-05T12:04:04.914Z,33.72
2019-05-05T12:06:38.170Z,32.96
2019-05-05T12:09:13.871Z,32.96
2019-05-05T12:11:44.468Z,34.20
2019-05-05T12:14:16.658Z,34.78
2019-05-05T12:16:47.351Z,32.96
2019-05-05T12:19:18.171Z,32.96
2019-05-05T12:21:48.823Z,33.63
2019-05-05T12:24:24.654Z,34.41
2019-05-05T12:26:56.478Z,36.41
2019-05-05T12:29:27.094Z,36.41
2019-05-05T12:31:58.506Z,36.75
2019-05-05T12:34:30.671Z,36.70
2019-05-05T12:37:05.933Z,35.15
2019-05-05T12:39:37.788Z,34.88
2019-05-05T12:42:09.602Z,33.47
2019-05-05T12:44:42.665Z,33.47
2019-05-05T12:47:14.885Z,33.26
2019-05-05T12:49:48.732Z,34.28
2019-05-05T12:52:19.926Z,35.17
2019-05-05T12:54:54.498Z,33.61
2019-05-05T12:57:26.041Z,33.60
2019-05-05T12:59:58.204Z,33.27
2019-05-05T13:02:35.591Z,33.87
2019-05-05T13:05:08.135Z,34.29
2019-05-05T13:07:39.142Z,34.11
2019-05-05T13:10:13.824Z,34.35
2019-05-05T13:12:44.875Z,33.89
2019-05-05T13:15:18.657Z,33.85
2019-05-05T13:17:51.297Z,33.00
2019-05-05T13:20:30.793Z,33.23
2019-05-05T13:23:19.472Z,33.13
2019-05-05T13:26:09.683Z,32.82
2019-05-05T13:28:40.424Z,32.59
2019-05-05T13:31:11.101Z,31.94
2019-05-05T13:33:44.063Z,32.30
2019-05-05T13:36:15.407Z,31.77
2019-05-05T13:38:47.633Z,32.89
2019-05-05T13:41:18.649Z,33.33
2019-05-05T13:43:51.560Z,33.22
2019-05-05T13:46:25.395Z,33.56
2019-05-05T13:48:58.069Z,33.87
2019-05-05T13:51:29.346Z,33.75
2019-05-05T13:54:01.380Z,33.82
2019-05-05T13:56:33.624Z,34.13
2019-05-05T13:59:05.843Z,34.51
2019-05-05T14:01:38.980Z,32.92
2019-05-05T14:04:11.172Z,32.92
2019-05-05T14:06:44.483Z,32.33
2019-05-05T14:09:16.678Z,33.10
2019-05-05T14:11:47.532Z,33.10
2019-05-05T14:14:20.309Z,33.44
2019-05-05T14:16:53.921Z,33.16
2019-05-05T14:19:26.738Z,33.46
2019-05-05T14:21:58.295Z,33.91
2019-05-05T14:24:39.777Z,33.47
2019-05-05T14:27:10.714Z,33.25
2019-05-05T14:29:45.673Z,33.19
2019-05-05T14:32:21.261Z,33.51
2019-05-05T14:34:59.466Z,33.36
2019-05-05T14:37:34.062Z,33.29
2019-05-05T14:40:08.568Z,33.64
2019-05-05T14:42:39.442Z,33.62
2019-05-05T14:45:12.139Z,33.37
2019-05-05T14:47:44.167Z,33.27
2019-05-05T14:50:15.100Z,33.36
2019-05-05T14:52:45.894Z,33.52
2019-05-05T14:55:16.664Z,33.48
2019-05-05T14:57:50.427Z,33.83
2019-05-05T15:00:24.205Z,34.21
2019-05-05T15:02:55.065Z,34.26
2019-05-05T15:05:44.462Z,34.85
2019-05-05T15:08:16.609Z,35.12
2019-05-05T15:10:54.841Z,35.13
2019-05-05T15:13:25.439Z,34.89
2019-05-05T15:15:56.051Z,35.12
2019-05-05T15:18:26.726Z,35.13
2019-05-05T15:20:59.170Z,35.03
2019-05-05T15:23:29.884Z,35.19
2019-05-05T15:26:00.632Z,35.56
2019-05-05T15:28:33.501Z,35.25
2019-05-05T15:31:07.933Z,35.52
2019-05-05T15:33:41.123Z,35.59
2019-05-05T15:36:13.813Z,36.01
2019-05-05T15:38:44.931Z,36.01
2019-05-05T15:41:15.556Z,36.43
2019-05-05T15:43:46.186Z,36.82
2019-05-05T15:46:16.774Z,37.34
2019-05-05T15:48:47.487Z,36.78
2019-05-05T15:51:18.200Z,37.08
2019-05-05T15:53:50.492Z,36.77
2019-05-05T15:56:21.643Z,36.92
2019-05-05T15:58:53.129Z,37.09
2019-05-05T16:01:25.851Z,37.12
2019-05-05T16:03:56.598Z,36.92
2019-05-05T16:06:30.277Z,37.41
2019-05-05T16:09:01.471Z,37.69
2019-05-05T16:11:34.488Z,37.84
2019-05-05T16:14:05.218Z,37.82
2019-05-05T16:16:55.632Z,37.56
2019-05-05T16:19:46.368Z,37.89
2019-05-05T16:22:25.497Z,38.21
2019-05-05T16:25:09.498Z,38.37
2019-05-05T16:27:45.091Z,39.04
2019-05-05T16:30:18.182Z,38.99
2019-05-05T16:32:49.034Z,39.00
2019-05-05T16:35:20.968Z,39.26
2019-05-05T16:37:51.581Z,39.45
2019-05-05T16:40:26.252Z,39.97
2019-05-05T16:42:58.429Z,40.55
2019-05-05T16:45:29.726Z,41.20
2019-05-05T16:48:03.931Z,41.35
2019-05-05T16:50:36.859Z,42.21
2019-05-05T16:53:07.794Z,41.53
2019-05-05T16:56:00.487Z,41.56
2019-05-05T16:58:31.145Z,42.01
2019-05-05T17:01:17.173Z,42.83
2019-05-05T17:03:49.411Z,43.31
2019-05-05T17:06:20.230Z,43.83
2019-05-05T17:08:50.963Z,43.92
2019-05-05T17:11:21.670Z,44.50
2019-05-05T17:14:09.546Z,44.64
2019-05-05T17:16:44.216Z,45.20
2019-05-05T17:19:33.759Z,44.90
2019-05-05T17:22:08.666Z,45.01
2019-05-05T17:24:39.378Z,45.61
2019-05-05T17:27:09.997Z,45.80
2019-05-05T17:29:40.749Z,46.07
2019-05-05T17:32:11.356Z,46.25
2019-05-05T17:34:48.010Z,46.60
2019-05-05T17:37:20.178Z,46.98
2019-05-05T17:39:54.569Z,47.39
2019-05-05T17:42:45.872Z,47.68
2019-05-05T17:45:20.772Z,47.38
2019-05-05T17:48:05.162Z,47.61
2019-05-05T17:50:53.983Z,47.98
2019-05-05T17:53:38.624Z,48.18
2019-05-05T17:56:13.599Z,48.24
2019-05-05T17:58:44.530Z,48.77
2019-05-05T18:01:17.362Z,48.40
2019-05-05T18:03:54.886Z,48.46
2019-05-05T18:06:39.521Z,48.37
2019-05-05T18:09:29.865Z,48.91
2019-05-05T18:12:18.483Z,49.01
2019-05-05T18:14:50.698Z,49.24
2019-05-05T18:17:21.318Z,49.25
2019-05-05T18:19:53.673Z,49.46
2019-05-05T18:22:24.821Z,49.26
2019-05-05T18:24:56.514Z,49.37
2019-05-05T18:27:32.049Z,49.47
2019-05-05T18:30:03.995Z,50.05
2019-05-05T18:32:36.229Z,50.10
2019-05-05T18:35:07.117Z,50.56
2019-05-05T18:37:39.485Z,50.54
2019-05-05T18:40:10.262Z,50.98
2019-05-05T18:42:41.957Z,51.26
2019-05-05T18:45:14.477Z,51.21
2019-05-05T18:47:45.296Z,51.09
2019-05-05T18:50:16.680Z,51.39
2019-05-05T18:52:50.675Z,52.08
2019-05-05T18:55:21.853Z,51.50
2019-05-05T18:57:54.139Z,51.69
2019-05-05T19:00:30.458Z,51.61
2019-05-05T19:03:17.719Z,51.42
2019-05-05T19:05:46.806Z,51.67
2019-05-05T19:08:27.879Z,52.16
2019-05-05T19:11:03.711Z,52.37
2019-05-05T19:13:35.096Z,52.87
2019-05-05T19:16:05.693Z,53.23
2019-05-05T19:18:36.344Z,53.32
2019-05-05T19:21:14.605Z,53.72
2019-05-05T19:23:45.234Z,53.70
2019-05-05T19:26:15.827Z,53.97
2019-05-05T19:28:50.028Z,54.30
2019-05-05T19:31:19.272Z,54.78
2019-05-05T19:33:50.708Z,54.56
2019-05-05T19:36:22.607Z,55.21
2019-05-05T19:38:54.920Z,55.45
2019-05-05T19:41:29.424Z,55.82
2019-05-05T19:44:01.867Z,56.42
2019-05-05T19:46:34.646Z,56.72
2019-05-05T19:49:16.476Z,57.08
2019-05-05T19:51:47.797Z,57.41
2019-05-05T19:54:18.377Z,57.55
2019-05-05T19:56:49.778Z,57.77
2019-05-05T19:59:20.617Z,57.96
2019-05-05T20:01:51.396Z,58.19
2019-05-05T20:04:24.117Z,58.36
2019-05-05T20:06:55.019Z,58.60
2019-05-05T20:09:28.327Z,58.90
2019-05-05T20:12:00.024Z,59.45
2019-05-05T20:14:30.808Z,59.70
2019-05-05T20:17:10.269Z,60.05
2019-05-05T20:19:43.961Z,60.10
2019-05-05T20:22:15.463Z,60.01
2019-05-05T20:24:47.673Z,60.56
2019-05-05T20:27:18.226Z,61.02
2019-05-05T20:29:49.177Z,60.87
2019-05-05T20:32:26.193Z,61.34
2019-05-05T20:35:10.509Z,61.47
2019-05-05T20:37:47.411Z,61.56
2019-05-05T20:40:21.038Z,61.65
2019-05-05T20:42:54.257Z,62.01
2019-05-05T20:45:29.159Z,62.30
2019-05-05T20:47:59.996Z,62.29
2019-05-05T20:50:34.313Z,62.55
2019-05-05T20:53:06.639Z,62.61
2019-05-05T20:55:37.837Z,63.02
2019-05-05T20:58:08.633Z,63.17
2019-05-05T21:00:39.309Z,63.55
2019-05-05T21:03:10.622Z,63.87
2019-05-05T21:05:41.277Z,63.90
2019-05-05T21:08:14.116Z,64.36
2019-05-05T21:10:47.910Z,64.61
2019-05-05T21:13:18.477Z,64.64
2019-05-05T21:15:51.106Z,64.91
2019-05-05T21:18:25.340Z,65.00
2019-05-05T21:20:57.921Z,65.55
2019-05-05T21:23:30.467Z,65.79
2019-05-05T21:26:06.405Z,66.16
2019-05-05T21:28:37.115Z,66.34
2019-05-05T21:31:07.734Z,66.43
2019-05-05T21:33:38.853Z,66.23
2019-05-05T21:36:09.543Z,66.52
2019-05-05T21:38:40.142Z,66.86
2019-05-05T21:41:13.652Z,66.76
2019-05-05T21:43:44.823Z,66.85
2019-05-05T21:46:17.877Z,66.68
2019-05-05T21:48:48.188Z,66.49
2019-05-05T21:51:27.917Z,66.64
2019-05-05T21:54:04.435Z,66.84
2019-05-05T21:56:38.298Z,66.95
2019-05-05T21:59:08.944Z,67.65
2019-05-05T22:01:48.999Z,67.67
2019-05-05T22:04:16.368Z,67.69
2019-05-05T22:06:46.948Z,67.72
2019-05-05T22:09:19.212Z,67.91
2019-05-05T22:11:49.899Z,67.93
2019-05-05T22:14:25.856Z,68.00
2019-05-05T22:16:57.074Z,68.16
2019-05-05T22:19:31.494Z,68.06
2019-05-05T22:22:10.424Z,68.00
2019-05-05T22:24:44.410Z,67.88
2019-05-05T22:27:16.129Z,67.42
2019-05-05T22:29:46.752Z,67.76
2019-05-05T22:32:19.293Z,67.96
2019-05-05T22:34:50.229Z,67.84
2019-05-05T22:37:23.643Z,67.71
2019-05-05T22:39:56.618Z,67.64
2019-05-05T22:42:27.462Z,67.69
2019-05-05T22:44:58.194Z,67.90
2019-05-05T22:47:30.025Z,68.00
2019-05-05T22:50:00.716Z,68.37
2019-05-05T22:52:34.411Z,67.58
2019-05-05T22:55:07.467Z,67.54
2019-05-05T22:57:39.019Z,67.73
2019-05-05T23:00:25.296Z,67.41
2019-05-05T23:03:04.452Z,66.76
2019-05-05T23:05:43.988Z,66.46
2019-05-05T23:08:18.407Z,66.96
2019-05-05T23:10:49.204Z,66.65
2019-05-05T23:13:19.867Z,66.44
2019-05-05T23:15:55.057Z,66.22
2019-05-05T23:18:28.650Z,65.86
2019-05-05T23:21:04.281Z,65.88
2019-05-05T23:23:36.700Z,65.86
2019-05-05T23:26:09.029Z,65.45
2019-05-05T23:28:39.784Z,65.29
2019-05-05T23:31:16.176Z,65.21
2019-05-05T23:33:47.240Z,64.82
2019-05-05T23:36:17.937Z,64.41
2019-05-05T23:38:48.548Z,64.21
2019-05-05T23:41:19.180Z,64.38
2019-05-05T23:43:50.879Z,64.33
2019-05-05T23:46:24.152Z,64.10
2019-05-05T23:48:57.764Z,63.90
2019-05-05T23:51:34.870Z,63.82
2019-05-05T23:54:07.283Z,63.67
2019-05-05T23:56:44.162Z,63.83
2019-05-05T23:59:15.550Z,64.16
